createdAt,value
2022-11-10T00:04:02.246Z,21.13
2022-11-10T00:19:04.221Z,15.87
2022-11-10T00:34:07.030Z,16.63
2022-11-10T00:49:08.898Z,19.00
2022-11-10T01:04:10.782Z,19.47
2022-11-10T01:19:12.898Z,19.97
2022-11-10T01:34:14.831Z,21.10
2022-11-10T01:49:23.726Z,22.53
2022-11-10T02:04:27.418Z,22.60
2022-11-10T02:19:29.801Z,24.83
2022-11-10T02:34:32.787Z,26.67
2022-11-10T02:49:34.836Z,28.97
2022-11-10T03:04:36.744Z,26.97
2022-11-10T03:19:38.769Z,24.73
2022-11-10T03:34:40.653Z,30.17
2022-11-10T03:49:42.877Z,31.60
2022-11-10T04:05:03.346Z,28.70
2022-11-10T04:20:05.957Z,26.83
2022-11-10T04:35:08.361Z,23.03
2022-11-10T04:50:10.379Z,20.73
2022-11-10T05:05:12.299Z,26.60
2022-11-10T05:20:14.317Z,25.57
2022-11-10T05:35:16.459Z,27.77
2022-11-10T05:50:19.055Z,28.07
2022-11-10T06:05:20.979Z,24.23
2022-11-10T06:20:24.274Z,23.03
2022-11-10T06:35:29.306Z,24.37
2022-11-10T06:50:31.919Z,26.53
2022-11-10T07:05:35.908Z,25.87
2022-11-10T07:20:38.338Z,25.73
2022-11-10T07:35:41.088Z,22.27
2022-11-10T07:50:43.064Z,22.50
2022-11-10T08:05:45.540Z,16.23
2022-11-10T08:20:48.983Z,10.50
2022-11-10T08:35:52.360Z,8.53
2022-11-10T08:50:54.657Z,8.57
2022-11-10T09:05:58.691Z,9.20
2022-11-10T09:21:03.288Z,8.60
2022-11-10T09:36:07.158Z,9.37
2022-11-10T09:51:12.886Z,8.37
2022-11-10T10:06:16.467Z,8.20
2022-11-10T10:21:44.328Z,7.60
2022-11-10T10:36:46.698Z,7.53
2022-11-10T10:51:50.897Z,8.10
2022-11-10T11:07:01.859Z,8.07
2022-11-10T11:22:24.521Z,8.27
2022-11-10T11:37:47.883Z,8.50
2022-11-10T11:53:05.369Z,7.83
2022-11-10T12:08:29.035Z,8.20
2022-11-10T12:24:03.851Z,7.47
2022-11-10T12:39:18.483Z,8.83
2022-11-10T12:54:23.781Z,6.90
2022-11-10T13:09:29.744Z,8.40
2022-11-10T13:24:40.063Z,7.47
2022-11-10T13:39:42.211Z,8.37
2022-11-10T13:55:31.768Z,8.67
2022-11-10T14:10:50.209Z,9.77
2022-11-10T14:26:05.134Z,10.20
2022-11-10T14:41:15.291Z,10.33
2022-11-10T14:56:35.269Z,10.93
2022-11-10T15:12:05.780Z,10.60
2022-11-10T15:27:17.556Z,10.00
2022-11-10T15:42:22.115Z,10.13
2022-11-10T15:57:24.019Z,10.43
2022-11-10T16:12:27.468Z,11.30
2022-11-10T16:27:29.527Z,10.53
2022-11-10T16:42:31.421Z,9.67
2022-11-10T16:57:38.745Z,11.17
2022-11-10T17:12:42.063Z,10.73
2022-11-10T17:27:44.219Z,11.93
2022-11-10T17:42:46.637Z,9.97
2022-11-10T17:57:48.899Z,13.17
2022-11-10T18:12:50.760Z,12.87
2022-11-10T18:27:52.825Z,13.30
2022-11-10T18:43:02.999Z,13.37
2022-11-10T18:58:07.925Z,13.07
2022-11-10T19:13:09.917Z,12.23
2022-11-10T19:28:12.085Z,11.30
2022-11-10T19:43:14.314Z,13.17
2022-11-10T19:58:16.279Z,13.10
2022-11-10T20:13:18.168Z,12.70
2022-11-10T20:28:20.246Z,14.47
2022-11-10T20:43:22.495Z,17.57
2022-11-10T20:58:24.666Z,14.87
2022-11-10T21:13:27.479Z,15.03
2022-11-10T21:28:31.857Z,17.13
2022-11-10T21:43:34.046Z,17.50
2022-11-10T21:58:36.849Z,22.83
2022-11-10T22:13:57.128Z,14.80
2022-11-10T22:28:59.184Z,16.93
2022-11-10T22:44:05.416Z,14.33
2022-11-10T22:59:07.496Z,13.10
2022-11-10T23:14:10.371Z,13.93
2022-11-10T23:29:12.399Z,13.57
2022-11-10T23:44:14.272Z,12.57
2022-11-10T23:59:16.174Z,12.77
